ADDS METAR Data INFO
IDs: Format: Raw Decoded Include TAF

Data at: 1120 UTC 17 Aug 2017

ETSI 171020Z VRB03KT 9999 FEW025 BKN220 25/18 Q1020 BLU+BLU+